createdAt,value
2022-11-15T17:06:15.562Z,14.00
2022-11-15T17:08:42.922Z,14.00
2022-11-15T17:11:10.293Z,13.90
2022-11-15T17:13:37.104Z,14.00
2022-11-15T17:16:05.749Z,14.00
2022-11-15T17:18:32.806Z,14.00
2022-11-15T17:21:06.423Z,14.00
2022-11-15T17:23:34.708Z,14.10
2022-11-15T17:26:28.369Z,14.10
2022-11-15T17:28:57.444Z,14.10
2022-11-15T17:31:25.338Z,14.10
2022-11-15T17:33:51.968Z,14.10
2022-11-15T17:36:18.648Z,14.10
2022-11-15T17:38:50.288Z,14.10
2022-11-15T17:41:16.924Z,14.20
2022-11-15T17:43:43.561Z,14.20
2022-11-15T17:46:21.224Z,14.20
2022-11-15T17:48:48.694Z,14.20
2022-11-15T17:51:17.791Z,14.20
2022-11-15T17:53:46.490Z,14.20
2022-11-15T17:56:15.616Z,14.20
2022-11-15T17:58:47.163Z,14.20
2022-11-15T18:01:25.711Z,14.20
2022-11-15T18:03:53.586Z,14.20
2022-11-15T18:06:22.249Z,14.20
2022-11-15T18:08:51.103Z,14.20
2022-11-15T18:11:22.195Z,14.20
2022-11-15T18:13:55.394Z,14.20
2022-11-15T18:16:27.524Z,14.20
2022-11-15T18:18:55.331Z,14.20
2022-11-15T18:21:56.820Z,14.20
2022-11-15T18:24:32.251Z,14.20
2022-11-15T18:27:00.082Z,14.20
2022-11-15T18:29:27.031Z,14.20
2022-11-15T18:31:58.641Z,14.20
2022-11-15T18:34:34.573Z,14.20
2022-11-15T18:37:02.763Z,14.20
2022-11-15T18:39:30.399Z,14.20
2022-11-15T18:41:59.532Z,14.20
2022-11-15T18:44:27.846Z,14.20
2022-11-15T18:46:58.928Z,14.20
2022-11-15T18:49:25.880Z,14.20
2022-11-15T18:51:52.521Z,14.20
2022-11-15T18:54:19.218Z,14.20
2022-11-15T18:56:46.797Z,14.20
2022-11-15T18:59:13.967Z,14.20
2022-11-15T19:01:46.372Z,14.20
2022-11-15T19:04:17.385Z,14.20
2022-11-15T19:06:46.542Z,14.20
2022-11-15T19:09:16.052Z,14.20
2022-11-15T19:11:43.943Z,14.20
2022-11-15T19:14:13.831Z,14.20
2022-11-15T19:16:45.131Z,14.20
2022-11-15T19:19:15.042Z,14.30
2022-11-15T19:21:42.286Z,14.20
2022-11-15T19:24:10.376Z,14.20
2022-11-15T19:26:37.776Z,14.20
2022-11-15T19:29:05.694Z,14.20
2022-11-15T19:31:32.961Z,14.20
2022-11-15T19:34:01.649Z,14.20
2022-11-15T19:36:33.663Z,14.20
2022-11-15T19:39:08.024Z,14.20
2022-11-15T19:41:36.514Z,14.20
2022-11-15T19:44:03.663Z,14.20
2022-11-15T19:46:30.529Z,14.20
2022-11-15T19:48:57.302Z,14.20
2022-11-15T19:51:26.469Z,14.20
2022-11-15T19:53:54.942Z,14.20
2022-11-15T19:56:23.402Z,14.10
2022-11-15T19:58:52.596Z,14.10
2022-11-15T20:01:32.318Z,14.10
2022-11-15T20:04:00.135Z,14.00
2022-11-15T20:06:35.209Z,14.00
2022-11-15T20:09:02.720Z,14.00
2022-11-15T20:11:29.735Z,14.00
2022-11-15T20:14:02.273Z,14.00
2022-11-15T20:16:29.635Z,14.00
2022-11-15T20:18:56.473Z,14.00
2022-11-15T20:21:23.588Z,14.00
2022-11-15T20:23:51.598Z,14.00
2022-11-15T20:26:20.307Z,14.00
2022-11-15T20:28:48.068Z,14.10
2022-11-15T20:31:15.508Z,14.10
2022-11-15T20:33:42.394Z,14.10
2022-11-15T20:36:18.253Z,14.10
2022-11-15T20:38:45.571Z,14.10
2022-11-15T20:41:13.124Z,14.20
2022-11-15T20:43:43.966Z,14.20
2022-11-15T20:46:12.695Z,14.20
2022-11-15T20:48:39.861Z,14.20
2022-11-15T20:51:17.997Z,14.20
2022-11-15T20:53:45.667Z,14.10
2022-11-15T20:56:18.998Z,14.10
2022-11-15T20:58:46.879Z,14.10
2022-11-15T21:01:15.132Z,14.10
2022-11-15T21:03:42.440Z,14.10
2022-11-15T21:06:09.906Z,14.10
2022-11-15T21:08:55.620Z,14.10
2022-11-15T21:11:41.210Z,14.10
2022-11-15T21:14:09.724Z,14.10
2022-11-15T21:16:40.095Z,14.10
2022-11-15T21:19:07.320Z,14.00
2022-11-15T21:21:35.772Z,14.00
2022-11-15T21:24:07.573Z,14.00
2022-11-15T21:26:35.229Z,13.90
2022-11-15T21:29:02.560Z,13.90
2022-11-15T21:31:30.054Z,13.90
2022-11-15T21:33:56.927Z,14.00
2022-11-15T21:36:25.073Z,14.00
2022-11-15T21:38:51.706Z,14.00
2022-11-15T21:41:18.395Z,14.00
2022-11-15T21:43:45.074Z,14.00
2022-11-15T21:46:11.666Z,14.00
2022-11-15T21:48:38.383Z,14.00
2022-11-15T21:51:07.820Z,13.90
2022-11-15T21:53:34.960Z,14.00
2022-11-15T21:56:02.090Z,13.90
2022-11-15T21:58:29.415Z,14.00
2022-11-15T22:01:15.648Z,13.90
2022-11-15T22:03:43.347Z,13.90
2022-11-15T22:06:16.045Z,14.00
2022-11-15T22:08:45.391Z,14.00
2022-11-15T22:11:12.358Z,14.00
2022-11-15T22:13:39.232Z,14.00
2022-11-15T22:16:06.622Z,14.00
2022-11-15T22:18:33.565Z,14.00
2022-11-15T22:21:01.649Z,14.00
2022-11-15T22:23:30.123Z,14.00
2022-11-15T22:25:57.166Z,14.00
2022-11-15T22:28:24.335Z,14.00
2022-11-15T22:30:52.663Z,14.00
2022-11-15T22:33:21.733Z,14.00
2022-11-15T22:35:48.617Z,14.00
2022-11-15T22:38:15.347Z,14.00
2022-11-15T22:40:42.971Z,13.90
2022-11-15T22:43:11.658Z,14.00
2022-11-15T22:45:38.300Z,13.90
2022-11-15T22:48:05.284Z,13.90
2022-11-15T22:50:32.056Z,14.00
2022-11-15T22:52:58.657Z,13.90
2022-11-15T22:55:25.292Z,13.90
2022-11-15T22:57:52.014Z,13.90
2022-11-15T23:00:18.755Z,13.90
2022-11-15T23:02:45.381Z,13.90
2022-11-15T23:05:12.689Z,13.90
2022-11-15T23:07:39.413Z,13.90
2022-11-15T23:10:25.331Z,13.90
2022-11-15T23:13:10.633Z,13.90
2022-11-15T23:15:56.218Z,13.90
2022-11-15T23:18:22.891Z,13.90
2022-11-15T23:20:49.788Z,13.90
2022-11-15T23:23:16.461Z,13.90
2022-11-15T23:25:43.134Z,13.90
2022-11-15T23:28:09.737Z,13.80
2022-11-15T23:30:55.801Z,13.80
2022-11-15T23:33:41.856Z,13.80
2022-11-15T23:36:08.889Z,13.70
2022-11-15T23:38:37.349Z,13.60
2022-11-15T23:41:05.684Z,13.60
2022-11-15T23:43:32.597Z,13.60
2022-11-15T23:46:02.533Z,13.60
2022-11-15T23:48:29.228Z,13.50
2022-11-15T23:50:56.027Z,13.50
2022-11-15T23:53:22.789Z,13.50
2022-11-15T23:56:07.641Z,13.50
2022-11-15T23:58:34.671Z,13.50
